createdAt,value
2023-05-22T00:01:02.521Z,99.90
2023-05-22T00:05:25.192Z,99.90
2023-05-22T00:09:47.157Z,99.90
2023-05-22T00:14:09.646Z,99.90
2023-05-22T00:18:31.815Z,99.90
2023-05-22T00:22:54.834Z,99.90
2023-05-22T00:27:17.178Z,99.90
2023-05-22T00:31:39.508Z,99.90
2023-05-22T00:36:01.875Z,99.90
2023-05-22T00:40:23.936Z,99.90
2023-05-22T00:44:46.253Z,99.90
2023-05-22T00:49:08.286Z,99.90
2023-05-22T00:53:31.795Z,99.90
2023-05-22T00:57:54.440Z,99.90
2023-05-22T01:02:17.077Z,99.90
2023-05-22T01:06:39.525Z,99.90
2023-05-22T01:11:10.702Z,99.90
2023-05-22T01:15:41.476Z,99.90
2023-05-22T01:20:19.380Z,99.90
2023-05-22T01:25:34.718Z,99.90
2023-05-22T01:30:25.831Z,99.90
2023-05-22T01:34:51.075Z,99.90
2023-05-22T01:39:18.014Z,99.90
2023-05-22T01:43:42.760Z,99.90
2023-05-22T01:48:05.005Z,99.90
2023-05-22T01:52:56.279Z,99.90
2023-05-22T01:57:27.500Z,99.90
2023-05-22T02:01:53.118Z,99.90
2023-05-22T02:06:16.108Z,99.90
2023-05-22T02:10:41.703Z,99.90
2023-05-22T02:15:08.665Z,99.90
2023-05-22T02:19:31.138Z,99.90
2023-05-22T02:23:53.356Z,99.90
2023-05-22T02:28:16.117Z,99.90
2023-05-22T02:32:41.780Z,99.90
2023-05-22T02:37:04.043Z,99.90
2023-05-22T02:41:26.777Z,99.90
2023-05-22T02:45:49.241Z,99.90
2023-05-22T02:50:13.314Z,99.90
2023-05-22T02:54:35.535Z,99.90
2023-05-22T02:58:57.778Z,99.90
2023-05-22T03:03:20.366Z,99.90
2023-05-22T03:07:42.938Z,99.90
2023-05-22T03:12:05.776Z,99.90
2023-05-22T03:16:28.700Z,99.90
2023-05-22T03:20:51.130Z,99.90
2023-05-22T03:25:13.510Z,99.90
2023-05-22T03:29:36.567Z,99.90
2023-05-22T03:33:59.432Z,99.90
2023-05-22T03:38:21.736Z,99.90
2023-05-22T03:42:43.853Z,99.90
2023-05-22T03:47:06.177Z,99.90
2023-05-22T03:51:28.336Z,99.90
2023-05-22T03:55:50.407Z,99.90
2023-05-22T04:00:17.228Z,99.90
2023-05-22T04:04:40.220Z,99.90
2023-05-22T04:09:02.489Z,99.90
2023-05-22T04:13:27.150Z,99.90
2023-05-22T04:17:50.239Z,99.90
2023-05-22T04:22:12.277Z,99.90
2023-05-22T04:26:34.646Z,99.90
2023-05-22T04:30:59.903Z,99.90
2023-05-22T04:35:22.657Z,99.90
2023-05-22T04:39:46.257Z,99.90
2023-05-22T04:44:08.815Z,99.90
2023-05-22T04:48:30.720Z,99.90
2023-05-22T04:52:53.700Z,99.90
2023-05-22T04:57:17.425Z,99.90
2023-05-22T05:01:40.403Z,99.90
2023-05-22T05:06:03.895Z,99.80
2023-05-22T05:10:25.972Z,96.20
2023-05-22T05:14:48.108Z,93.20
2023-05-22T05:19:11.276Z,89.70
2023-05-22T05:23:33.177Z,83.10
2023-05-22T05:27:55.169Z,76.30
2023-05-22T05:32:18.858Z,70.90
2023-05-22T05:36:49.015Z,66.80
2023-05-22T05:41:12.752Z,67.40
2023-05-22T05:45:36.026Z,62.00
2023-05-22T05:49:58.358Z,59.70
2023-05-22T05:54:26.398Z,58.30
2023-05-22T05:58:51.759Z,56.40
2023-05-22T06:03:25.973Z,53.90
2023-05-22T06:08:06.361Z,51.90
2023-05-22T06:12:29.359Z,52.50
2023-05-22T06:16:51.379Z,52.40
2023-05-22T06:21:14.035Z,54.00
2023-05-22T06:25:36.303Z,53.70
2023-05-22T06:30:00.686Z,53.70
2023-05-22T06:34:28.211Z,53.00
2023-05-22T06:38:52.207Z,53.00
2023-05-22T06:43:43.476Z,52.80
2023-05-22T06:48:08.634Z,52.40
2023-05-22T06:52:39.141Z,52.20
2023-05-22T06:57:04.054Z,51.40
2023-05-22T07:01:29.489Z,49.60
2023-05-22T07:06:02.460Z,48.60
2023-05-22T07:10:27.911Z,49.70
2023-05-22T07:14:53.119Z,50.90
2023-05-22T07:19:18.165Z,49.50
2023-05-22T07:23:40.778Z,48.80
2023-05-22T07:28:09.126Z,48.60
2023-05-22T07:32:40.557Z,50.50
2023-05-22T07:37:14.472Z,50.60
2023-05-22T07:41:39.617Z,49.10
2023-05-22T07:46:06.317Z,49.00
2023-05-22T07:50:34.686Z,47.80
2023-05-22T07:54:57.176Z,45.90
2023-05-22T07:59:21.798Z,45.00
2023-05-22T08:03:44.733Z,45.80
2023-05-22T08:08:06.744Z,45.20
2023-05-22T08:12:28.779Z,44.70
2023-05-22T08:16:51.073Z,44.60
2023-05-22T08:21:13.231Z,44.90
2023-05-22T08:25:35.276Z,43.00
2023-05-22T08:29:57.642Z,41.90
2023-05-22T08:34:19.844Z,46.30
2023-05-22T08:38:42.164Z,49.80
2023-05-22T08:43:06.488Z,51.70
2023-05-22T08:47:30.433Z,52.90
2023-05-22T08:52:02.545Z,54.10
2023-05-22T08:56:26.805Z,54.20
2023-05-22T09:00:51.152Z,54.80
2023-05-22T09:05:13.716Z,53.80
2023-05-22T09:09:39.897Z,55.20
2023-05-22T09:14:10.856Z,54.20
2023-05-22T09:18:32.716Z,54.40
2023-05-22T09:22:55.004Z,53.40
2023-05-22T09:27:16.997Z,53.80
2023-05-22T09:31:44.476Z,54.20
2023-05-22T09:36:10.420Z,53.00
2023-05-22T09:40:37.797Z,55.00
2023-05-22T09:45:07.969Z,52.20
2023-05-22T09:49:29.942Z,53.40
2023-05-22T09:53:54.678Z,54.00
2023-05-22T09:58:20.395Z,53.60
2023-05-22T10:02:48.441Z,53.00
2023-05-22T10:07:11.758Z,53.90
2023-05-22T10:11:35.539Z,52.50
2023-05-22T10:15:58.558Z,54.30
2023-05-22T10:20:21.019Z,57.70
2023-05-22T10:24:43.599Z,59.40
2023-05-22T10:29:18.924Z,59.40
2023-05-22T10:33:51.613Z,59.40
2023-05-22T10:39:05.422Z,60.40
2023-05-22T10:43:33.844Z,60.60
2023-05-22T10:48:11.968Z,61.00
2023-05-22T10:52:34.429Z,58.10
2023-05-22T10:57:14.634Z,59.00
2023-05-22T11:01:38.567Z,57.20
2023-05-22T11:06:08.005Z,58.80
2023-05-22T11:10:56.422Z,58.40
2023-05-22T11:15:19.321Z,58.30
2023-05-22T11:19:42.492Z,58.00
2023-05-22T11:24:07.783Z,58.90
2023-05-22T11:28:31.937Z,59.50
2023-05-22T11:32:54.786Z,59.80
2023-05-22T11:37:19.284Z,60.60
2023-05-22T11:41:41.721Z,61.10
2023-05-22T11:46:11.553Z,62.90
2023-05-22T11:50:42.163Z,61.10
2023-05-22T11:55:06.202Z,61.00
2023-05-22T11:59:28.800Z,59.80
2023-05-22T12:03:50.918Z,61.30
2023-05-22T12:08:13.083Z,62.60
2023-05-22T12:12:35.186Z,60.80
2023-05-22T12:16:59.119Z,61.90
2023-05-22T12:21:22.042Z,61.70
2023-05-22T12:25:43.935Z,62.90
2023-05-22T12:30:11.288Z,65.10
2023-05-22T12:34:45.803Z,67.70
2023-05-22T12:39:12.224Z,67.90
2023-05-22T12:43:34.588Z,68.00
2023-05-22T12:47:56.601Z,70.10
2023-05-22T12:52:18.872Z,70.10
2023-05-22T12:56:41.237Z,69.70
2023-05-22T13:01:03.651Z,68.80
2023-05-22T13:05:25.629Z,69.70
2023-05-22T13:09:47.618Z,69.10
2023-05-22T13:14:09.920Z,68.20
2023-05-22T13:18:32.067Z,68.10
2023-05-22T13:22:55.203Z,68.60
2023-05-22T13:27:19.235Z,69.10
2023-05-22T13:31:41.413Z,68.80
2023-05-22T13:36:05.236Z,67.50
2023-05-22T13:40:28.386Z,65.90
2023-05-22T13:44:51.141Z,65.20
2023-05-22T13:49:13.459Z,64.50
2023-05-22T13:53:35.918Z,64.70
2023-05-22T13:57:58.134Z,65.70
2023-05-22T14:02:24.341Z,66.30
2023-05-22T14:06:47.180Z,66.30
2023-05-22T14:11:09.449Z,63.40
2023-05-22T14:15:32.242Z,63.20
2023-05-22T14:19:54.417Z,64.20
2023-05-22T14:24:17.123Z,64.00
2023-05-22T14:28:39.416Z,65.30
2023-05-22T14:33:01.957Z,65.70
2023-05-22T14:37:24.234Z,66.00
2023-05-22T14:41:46.500Z,63.30
2023-05-22T14:46:09.567Z,65.00
2023-05-22T14:50:31.767Z,65.40
2023-05-22T14:54:54.024Z,66.50
2023-05-22T14:59:16.383Z,65.60
2023-05-22T15:03:38.778Z,65.50
2023-05-22T15:08:00.960Z,65.20
2023-05-22T15:12:23.341Z,64.60
2023-05-22T15:16:47.238Z,65.30
2023-05-22T15:21:09.340Z,65.30
2023-05-22T15:25:34.017Z,63.40
2023-05-22T15:29:57.052Z,66.00
2023-05-22T15:34:19.417Z,66.20
2023-05-22T15:38:42.836Z,66.10
2023-05-22T15:43:05.068Z,67.00
2023-05-22T15:47:27.533Z,68.10
2023-05-22T15:51:49.775Z,69.70
2023-05-22T15:56:11.862Z,70.20
2023-05-22T16:00:41.441Z,71.10
2023-05-22T16:05:03.939Z,71.70
2023-05-22T16:09:25.936Z,72.70
2023-05-22T16:13:48.136Z,73.50
2023-05-22T16:18:11.828Z,73.50
2023-05-22T16:22:47.308Z,74.70
2023-05-22T16:27:11.244Z,75.30
2023-05-22T16:31:35.873Z,76.90
2023-05-22T16:35:58.435Z,77.20
2023-05-22T16:40:20.659Z,77.90
2023-05-22T16:44:42.602Z,78.10
2023-05-22T16:49:04.918Z,79.20
2023-05-22T16:53:27.952Z,79.90
2023-05-22T16:57:50.201Z,81.20
2023-05-22T17:02:12.464Z,81.70
2023-05-22T17:06:35.723Z,82.10
2023-05-22T17:10:58.197Z,82.40
2023-05-22T17:15:20.660Z,82.70
2023-05-22T17:19:43.440Z,82.80
2023-05-22T17:24:05.838Z,83.60
2023-05-22T17:28:28.086Z,84.30
2023-05-22T17:32:53.564Z,84.70
2023-05-22T17:37:15.897Z,85.20
2023-05-22T17:41:38.527Z,86.00
2023-05-22T17:46:01.734Z,86.50
2023-05-22T17:50:24.185Z,87.00
2023-05-22T17:54:47.093Z,87.90
2023-05-22T17:59:09.192Z,89.00
2023-05-22T18:03:31.882Z,90.20
2023-05-22T18:07:54.216Z,91.00
2023-05-22T18:12:31.300Z,91.90
2023-05-22T18:16:54.000Z,92.50
2023-05-22T18:21:16.204Z,92.50
2023-05-22T18:25:38.637Z,92.00
2023-05-22T18:30:00.816Z,92.20
2023-05-22T18:34:23.074Z,92.60
2023-05-22T18:38:45.440Z,93.10
2023-05-22T18:43:07.362Z,93.70
2023-05-22T18:47:29.667Z,94.40
2023-05-22T18:51:51.977Z,95.30
2023-05-22T18:56:14.845Z,96.10
2023-05-22T19:00:39.470Z,97.00
2023-05-22T19:05:01.732Z,97.90
2023-05-22T19:09:24.963Z,98.90
2023-05-22T19:13:47.341Z,99.90
2023-05-22T19:18:09.260Z,99.90
2023-05-22T19:22:32.108Z,99.90
2023-05-22T19:26:54.386Z,99.90
2023-05-22T19:31:18.565Z,99.90
2023-05-22T19:35:41.277Z,99.90
2023-05-22T19:40:05.403Z,99.90
2023-05-22T19:44:28.037Z,99.90
2023-05-22T19:48:50.210Z,99.90
2023-05-22T19:53:12.439Z,99.90
2023-05-22T19:57:34.479Z,99.90
2023-05-22T20:01:56.687Z,99.90
2023-05-22T20:06:19.206Z,99.90
2023-05-22T20:10:41.674Z,99.90
2023-05-22T20:15:04.751Z,99.90
2023-05-22T20:19:28.819Z,99.90
2023-05-22T20:23:51.624Z,99.90
2023-05-22T20:28:13.716Z,99.90
2023-05-22T20:32:35.945Z,99.90
2023-05-22T20:36:58.635Z,99.90
2023-05-22T20:41:23.009Z,99.90
2023-05-22T20:45:46.005Z,99.90
2023-05-22T20:50:09.204Z,99.90
2023-05-22T20:54:34.660Z,99.90
2023-05-22T20:58:57.178Z,99.90
2023-05-22T21:03:19.588Z,99.90
2023-05-22T21:07:41.922Z,99.90
2023-05-22T21:12:04.215Z,99.90
2023-05-22T21:16:26.228Z,99.90
2023-05-22T21:20:48.455Z,99.90
2023-05-22T21:25:10.885Z,99.90
2023-05-22T21:29:35.863Z,99.90
2023-05-22T21:33:58.128Z,99.90
2023-05-22T21:38:20.198Z,99.90
2023-05-22T21:42:46.962Z,99.90
2023-05-22T21:47:09.417Z,99.90
2023-05-22T21:51:32.262Z,99.90
2023-05-22T21:55:54.562Z,99.90
2023-05-22T22:00:17.481Z,99.90
2023-05-22T22:04:39.265Z,99.90
2023-05-22T22:09:03.632Z,99.90
2023-05-22T22:13:25.560Z,99.90
2023-05-22T22:17:47.814Z,99.90
2023-05-22T22:22:12.620Z,99.90
2023-05-22T22:26:35.817Z,99.90
2023-05-22T22:30:57.862Z,99.90
2023-05-22T22:35:20.303Z,99.90
2023-05-22T22:39:42.675Z,99.90
2023-05-22T22:44:04.768Z,99.90
2023-05-22T22:48:26.945Z,99.90
2023-05-22T22:52:48.890Z,99.90
2023-05-22T22:57:11.060Z,99.90
2023-05-22T23:01:33.359Z,99.90
2023-05-22T23:05:55.539Z,99.90
2023-05-22T23:10:17.841Z,99.90
2023-05-22T23:14:39.920Z,99.90
2023-05-22T23:19:05.950Z,99.90
2023-05-22T23:23:28.279Z,99.90
2023-05-22T23:27:50.798Z,99.90
2023-05-22T23:32:14.700Z,99.90
2023-05-22T23:36:37.135Z,99.90
2023-05-22T23:40:59.314Z,99.90
2023-05-22T23:45:21.634Z,99.90
2023-05-22T23:49:43.936Z,99.90
2023-05-22T23:54:06.388Z,99.90
2023-05-22T23:58:29.982Z,99.90
